createdAt,value
2022-12-04T00:01:24.481Z,98651.72
2022-12-04T00:04:26.275Z,98658.66
2022-12-04T00:07:28.050Z,98649.09
2022-12-04T00:10:29.909Z,98646.47
2022-12-04T00:13:33.007Z,98644.72
2022-12-04T00:16:34.724Z,98656.91
2022-12-04T00:19:36.367Z,98654.31
2022-12-04T00:22:37.839Z,98648.19
2022-12-04T00:25:41.387Z,98651.72
2022-12-04T00:28:44.749Z,98652.56
2022-12-04T00:31:46.904Z,98653.44
2022-12-04T00:34:51.581Z,98646.50
2022-12-04T00:37:53.148Z,98649.09
2022-12-04T00:40:54.866Z,98646.50
2022-12-04T00:43:57.844Z,98641.25
2022-12-04T00:46:59.389Z,98643.00
2022-12-04T00:50:00.877Z,98640.38
2022-12-04T00:53:02.360Z,98635.16
2022-12-04T00:56:04.052Z,98631.66
2022-12-04T00:59:07.030Z,98635.16
2022-12-04T01:02:11.587Z,98633.41
2022-12-04T01:05:13.145Z,98627.31
2022-12-04T01:08:14.913Z,98631.66
2022-12-04T01:11:17.196Z,98630.78
2022-12-04T01:14:20.208Z,98616.81
2022-12-04T01:17:21.876Z,98634.25
2022-12-04T01:20:23.464Z,98622.91
2022-12-04T01:23:25.022Z,98623.78
2022-12-04T01:26:27.220Z,98618.56
2022-12-04T01:29:30.383Z,98618.53
2022-12-04T01:32:31.874Z,98622.91
2022-12-04T01:35:33.602Z,98617.69
2022-12-04T01:38:35.493Z,98606.34
2022-12-04T01:41:37.120Z,98609.81
2022-12-04T01:44:41.881Z,98614.22
2022-12-04T01:47:43.530Z,98602.00
2022-12-04T01:50:45.833Z,98601.13
2022-12-04T01:53:49.515Z,98604.59
2022-12-04T01:56:53.156Z,98597.63
2022-12-04T01:59:57.761Z,98605.47
2022-12-04T02:02:59.697Z,98600.22
2022-12-04T02:06:04.620Z,98609.84
2022-12-04T02:09:06.506Z,98611.59
2022-12-04T02:12:13.356Z,98617.69
2022-12-04T02:15:22.580Z,98618.56
2022-12-04T02:18:29.232Z,98611.56
2022-12-04T02:21:33.692Z,98610.72
2022-12-04T02:24:48.235Z,98617.69
2022-12-04T02:28:05.718Z,98617.69
2022-12-04T02:31:12.402Z,98610.72
2022-12-04T02:34:16.512Z,98613.31
2022-12-04T02:37:21.401Z,98607.22
2022-12-04T02:40:25.517Z,98607.22
2022-12-04T02:43:30.362Z,98608.09
2022-12-04T02:46:34.456Z,98606.34
2022-12-04T02:49:38.841Z,98596.75
2022-12-04T02:52:42.494Z,98595.00
2022-12-04T02:55:46.663Z,98588.03
2022-12-04T02:58:53.105Z,98597.63
2022-12-04T03:01:56.786Z,98594.13
2022-12-04T03:05:01.244Z,98599.38
2022-12-04T03:08:04.736Z,98593.25
2022-12-04T03:11:06.327Z,98581.91
2022-12-04T03:14:12.285Z,98577.53
2022-12-04T03:17:16.247Z,98583.66
2022-12-04T03:20:19.744Z,98578.41
2022-12-04T03:23:23.861Z,98588.03
2022-12-04T03:26:27.408Z,98573.19
2022-12-04T03:29:33.882Z,98577.53
2022-12-04T03:32:38.723Z,98577.56
2022-12-04T03:35:41.863Z,98572.31
2022-12-04T03:38:46.698Z,98578.44
2022-12-04T03:41:55.812Z,98569.66
2022-12-04T03:45:02.099Z,98575.81
2022-12-04T03:48:06.772Z,98569.69
2022-12-04T03:51:12.990Z,98582.78
2022-12-04T03:54:16.510Z,98589.78
2022-12-04T03:57:20.040Z,98597.63
2022-12-04T04:00:23.800Z,98595.88
2022-12-04T04:03:28.502Z,98595.00
2022-12-04T04:06:31.765Z,98598.50
2022-12-04T04:09:35.868Z,98594.13
2022-12-04T04:12:40.373Z,98595.00
2022-12-04T04:16:03.745Z,98606.34
2022-12-04T04:19:24.181Z,98607.22
2022-12-04T04:22:44.858Z,98604.63
2022-12-04T04:25:47.479Z,98596.75
2022-12-04T04:28:49.038Z,98592.38
2022-12-04T04:31:54.592Z,98594.13
2022-12-04T04:34:58.802Z,98591.50
2022-12-04T04:38:05.219Z,98589.75
2022-12-04T04:41:10.193Z,98588.03
2022-12-04T04:44:15.540Z,98588.00
2022-12-04T04:47:21.813Z,98584.50
2022-12-04T04:50:24.124Z,98581.91
2022-12-04T04:53:30.792Z,98587.13
2022-12-04T04:56:32.471Z,98588.00
2022-12-04T04:59:34.690Z,98588.88
2022-12-04T05:02:37.701Z,98588.00
2022-12-04T05:05:39.349Z,98597.63
2022-12-04T05:08:40.954Z,98596.72
2022-12-04T05:11:42.498Z,98597.63
2022-12-04T05:14:44.135Z,98610.69
2022-12-04T05:17:47.045Z,98609.84
2022-12-04T05:20:48.604Z,98606.34
2022-12-04T05:23:51.036Z,98600.22
2022-12-04T05:26:52.749Z,98602.84
2022-12-04T05:29:55.035Z,98593.25
2022-12-04T05:32:58.614Z,98597.59
2022-12-04T05:36:00.807Z,98593.25
2022-12-04T05:39:02.518Z,98596.75
2022-12-04T05:42:04.167Z,98593.25
2022-12-04T05:45:06.656Z,98594.13
2022-12-04T05:48:09.631Z,98588.88
2022-12-04T05:51:11.263Z,98594.09
2022-12-04T05:54:12.888Z,98589.72
2022-12-04T05:57:14.543Z,98588.00
2022-12-04T06:00:16.592Z,98601.09
2022-12-04T06:03:19.622Z,98598.50
2022-12-04T06:06:25.055Z,98595.00
2022-12-04T06:09:26.752Z,98605.47
2022-12-04T06:12:29.531Z,98601.94
2022-12-04T06:15:31.065Z,98609.81
2022-12-04T06:18:34.209Z,98604.59
2022-12-04T06:21:37.902Z,98608.06
2022-12-04T06:24:39.431Z,98601.09
2022-12-04T06:27:40.944Z,98602.84
2022-12-04T06:30:42.982Z,98591.47
2022-12-04T06:33:46.408Z,98598.47
2022-12-04T06:36:48.193Z,98592.34
2022-12-04T06:39:49.694Z,98593.22
2022-12-04T06:42:51.309Z,98591.47
2022-12-04T06:45:59.558Z,98594.97
2022-12-04T06:49:02.716Z,98592.34
2022-12-04T06:52:04.311Z,98594.09
2022-12-04T06:55:06.408Z,98596.72
2022-12-04T06:58:08.079Z,98597.56
2022-12-04T07:01:10.998Z,98599.34
2022-12-04T07:04:13.940Z,98607.19
2022-12-04T07:07:15.424Z,98611.53
2022-12-04T07:10:17.076Z,98608.97
2022-12-04T07:13:18.612Z,98595.84
2022-12-04T07:16:21.114Z,98606.31
2022-12-04T07:19:24.305Z,98608.91
2022-12-04T07:22:26.485Z,98609.78
2022-12-04T07:25:29.593Z,98610.66
2022-12-04T07:28:31.150Z,98611.53
2022-12-04T07:31:32.803Z,98606.31
2022-12-04T07:34:35.932Z,98608.06
2022-12-04T07:37:37.411Z,98609.78
2022-12-04T07:40:39.303Z,98606.28
2022-12-04T07:43:41.065Z,98601.94
2022-12-04T07:46:42.606Z,98613.31
2022-12-04T07:49:45.801Z,98609.78
2022-12-04T07:52:47.380Z,98607.19
2022-12-04T07:55:52.174Z,98613.28
2022-12-04T07:58:53.842Z,98609.78
2022-12-04T08:01:55.467Z,98608.03
2022-12-04T08:04:58.551Z,98604.53
2022-12-04T08:08:00.217Z,98607.16
2022-12-04T08:11:05.412Z,98608.91
2022-12-04T08:14:08.968Z,98604.53
2022-12-04T08:17:10.755Z,98605.38
2022-12-04T08:20:14.182Z,98607.13
2022-12-04T08:23:16.058Z,98611.50
2022-12-04T08:26:20.750Z,98611.50
2022-12-04T08:29:22.274Z,98613.22
2022-12-04T08:32:23.780Z,98615.88
2022-12-04T08:35:26.810Z,98604.50
2022-12-04T08:38:31.095Z,98611.50
2022-12-04T08:41:32.720Z,98621.97
2022-12-04T08:44:34.324Z,98619.34
2022-12-04T08:47:36.019Z,98617.63
2022-12-04T08:50:44.078Z,98613.22
2022-12-04T08:53:45.831Z,98611.47
2022-12-04T08:56:47.428Z,98622.81
2022-12-04T08:59:49.148Z,98615.88
2022-12-04T09:02:50.671Z,98610.59
2022-12-04T09:05:58.397Z,98607.13
2022-12-04T09:09:00.231Z,98604.50
2022-12-04T09:12:01.739Z,98615.00
2022-12-04T09:15:05.050Z,98607.97
2022-12-04T09:18:07.131Z,98615.84
2022-12-04T09:21:11.313Z,98621.09
2022-12-04T09:24:12.985Z,98621.09
2022-12-04T09:27:15.204Z,98621.94
2022-12-04T09:30:16.957Z,98619.34
2022-12-04T09:33:18.520Z,98624.56
2022-12-04T09:36:21.506Z,98620.22
2022-12-04T09:39:23.045Z,98614.09
2022-12-04T09:42:35.136Z,98617.59
2022-12-04T09:45:43.059Z,98623.69
2022-12-04T09:48:48.550Z,98607.97
2022-12-04T09:51:53.303Z,98605.34
2022-12-04T09:54:55.365Z,98605.34
2022-12-04T09:58:02.073Z,98612.34
2022-12-04T10:01:04.506Z,98607.97
2022-12-04T10:04:06.783Z,98615.81
2022-12-04T10:07:13.466Z,98614.94
2022-12-04T10:10:19.307Z,98613.16
2022-12-04T10:13:28.372Z,98615.78
2022-12-04T10:16:36.706Z,98611.41
2022-12-04T10:19:44.373Z,98606.16
2022-12-04T10:22:54.539Z,98607.97
2022-12-04T10:25:56.077Z,98607.94
2022-12-04T10:29:00.465Z,98600.94
2022-12-04T10:32:04.757Z,98599.22
2022-12-04T10:35:10.315Z,98597.47
2022-12-04T10:38:21.435Z,98600.97
2022-12-04T10:41:25.580Z,98601.81
2022-12-04T10:44:27.526Z,98597.47
2022-12-04T10:47:29.092Z,98599.22
2022-12-04T10:50:30.668Z,98599.22
2022-12-04T10:53:35.737Z,98592.25
2022-12-04T10:56:37.306Z,98592.25
2022-12-04T10:59:40.021Z,98580.88
2022-12-04T11:02:41.700Z,98574.72
2022-12-04T11:05:45.734Z,98571.22
2022-12-04T11:08:50.834Z,98563.41
2022-12-04T11:11:52.513Z,98566.91
2022-12-04T11:15:00.997Z,98573.84
2022-12-04T11:18:09.414Z,98572.97
2022-12-04T11:21:14.625Z,98574.72
2022-12-04T11:24:23.206Z,98572.97
2022-12-04T11:27:27.805Z,98570.31
2022-12-04T11:30:31.115Z,98572.94
2022-12-04T11:33:34.525Z,98573.81
2022-12-04T11:36:40.886Z,98572.09
2022-12-04T11:39:45.152Z,98572.97
2022-12-04T11:42:58.118Z,98573.88
2022-12-04T11:46:01.676Z,98580.00
2022-12-04T11:49:03.916Z,98579.97
2022-12-04T11:52:12.106Z,98571.22
2022-12-04T11:55:20.356Z,98570.34
2022-12-04T11:58:33.990Z,98567.75
2022-12-04T12:01:42.032Z,98558.09
2022-12-04T12:04:50.578Z,98556.34
2022-12-04T12:11:21.681Z,98564.22
2022-12-04T12:14:26.219Z,98561.59
2022-12-04T12:17:32.816Z,98552.84
2022-12-04T12:20:37.683Z,98551.13
2022-12-04T12:23:49.216Z,98551.16
2022-12-04T12:26:55.394Z,98543.31
2022-12-04T12:30:00.733Z,98535.44
2022-12-04T12:33:09.424Z,98540.63
2022-12-04T12:36:11.699Z,98547.66
2022-12-04T12:39:16.259Z,98534.56
2022-12-04T12:42:21.299Z,98531.94
2022-12-04T12:45:26.725Z,98532.81
2022-12-04T12:48:30.216Z,98524.06
2022-12-04T12:51:35.459Z,98525.81
2022-12-04T12:54:41.171Z,98522.34
2022-12-04T12:57:46.428Z,98517.09
2022-12-04T13:00:54.613Z,98513.59
2022-12-04T13:03:58.420Z,98511.88
2022-12-04T13:07:10.732Z,98513.63
2022-12-04T13:10:15.471Z,98499.66
2022-12-04T13:13:22.399Z,98495.28
2022-12-04T13:16:26.006Z,98490.91
2022-12-04T13:19:29.623Z,98485.63
2022-12-04T13:22:36.275Z,98486.50
2022-12-04T13:25:43.574Z,98472.53
2022-12-04T13:28:50.971Z,98472.50
2022-12-04T13:31:58.327Z,98469.03
2022-12-04T13:35:04.087Z,98461.16
2022-12-04T13:38:14.217Z,98463.81
2022-12-04T13:41:17.190Z,98465.53
2022-12-04T13:44:21.346Z,98463.78
2022-12-04T13:47:28.160Z,98462.91
2022-12-04T13:50:30.702Z,98473.34
2022-12-04T13:53:33.666Z,98461.09
2022-12-04T13:56:35.186Z,98466.31
2022-12-04T13:59:38.961Z,98462.84
2022-12-04T14:02:44.588Z,98461.97
2022-12-04T14:05:47.371Z,98458.47
2022-12-04T14:08:54.687Z,98453.28
2022-12-04T14:11:59.524Z,98446.28
2022-12-04T14:15:03.353Z,98447.16
2022-12-04T14:18:06.943Z,98452.38
2022-12-04T14:21:08.430Z,98455.88
2022-12-04T14:24:16.197Z,98464.63
2022-12-04T14:27:32.734Z,98455.88
2022-12-04T14:30:38.304Z,98454.97
2022-12-04T14:33:44.250Z,98462.84
2022-12-04T14:36:47.792Z,98454.13
2022-12-04T14:39:50.290Z,98458.50
2022-12-04T14:42:52.367Z,98449.78
2022-12-04T14:45:58.535Z,98458.50
2022-12-04T14:49:04.889Z,98455.88
2022-12-04T14:52:09.844Z,98461.09
2022-12-04T14:55:17.910Z,98468.09
2022-12-04T14:58:34.670Z,98465.47
2022-12-04T15:01:38.569Z,98465.47
2022-12-04T15:04:45.909Z,98475.06
2022-12-04T15:07:49.223Z,98484.69
2022-12-04T15:11:09.543Z,98483.81
2022-12-04T15:14:13.464Z,98484.69
2022-12-04T15:17:17.835Z,98478.56
2022-12-04T15:20:21.005Z,98485.56
2022-12-04T15:23:25.192Z,98482.06
2022-12-04T15:26:26.930Z,98481.19
2022-12-04T15:29:30.121Z,98477.69
2022-12-04T15:32:33.157Z,98480.31
2022-12-04T15:35:35.027Z,98475.06
2022-12-04T15:38:36.920Z,98473.34
2022-12-04T15:41:38.632Z,98469.00
2022-12-04T15:44:49.690Z,98478.59
2022-12-04T15:47:53.845Z,98476.88
2022-12-04T15:50:56.334Z,98489.16
2022-12-04T15:53:58.003Z,98492.63
2022-12-04T15:57:00.714Z,98497.84
2022-12-04T16:00:05.192Z,98492.59
2022-12-04T16:03:23.567Z,98496.13
2022-12-04T16:06:26.088Z,98503.97
2022-12-04T16:09:28.500Z,98503.09
2022-12-04T16:12:31.177Z,98508.31
2022-12-04T16:15:36.310Z,98508.31
2022-12-04T16:18:39.542Z,98515.34
2022-12-04T16:21:41.133Z,98522.34
2022-12-04T16:24:42.900Z,98526.66
2022-12-04T16:27:44.473Z,98520.53
2022-12-04T16:30:46.145Z,98507.44
2022-12-04T16:33:49.017Z,98504.78
2022-12-04T16:36:50.570Z,98517.03
2022-12-04T16:39:52.055Z,98514.41
2022-12-04T16:42:53.646Z,98516.16
2022-12-04T16:45:55.675Z,98510.91
2022-12-04T16:49:02.737Z,98504.75
2022-12-04T16:52:08.042Z,98518.78
2022-12-04T16:55:15.363Z,98521.34
2022-12-04T16:58:17.416Z,98513.47
2022-12-04T17:01:21.534Z,98514.41
2022-12-04T17:04:24.554Z,98525.75
2022-12-04T17:07:26.284Z,98522.25
2022-12-04T17:10:29.494Z,98520.50
2022-12-04T17:13:31.397Z,98522.22
2022-12-04T17:16:33.298Z,98523.97
2022-12-04T17:19:36.342Z,98539.72
2022-12-04T17:22:37.975Z,98540.56
2022-12-04T17:25:39.663Z,98546.72
2022-12-04T17:28:41.642Z,98548.44
2022-12-04T17:31:43.224Z,98548.44
2022-12-04T17:34:46.339Z,98546.69
2022-12-04T17:37:47.787Z,98544.94
2022-12-04T17:40:57.561Z,98539.69
2022-12-04T17:43:59.569Z,98533.56
2022-12-04T17:47:01.050Z,98524.81
2022-12-04T17:50:03.966Z,98531.81
2022-12-04T17:53:05.434Z,98535.31
2022-12-04T17:56:09.259Z,98530.06
2022-12-04T17:59:10.964Z,98532.72
2022-12-04T18:02:12.729Z,98518.69
2022-12-04T18:05:16.048Z,98517.81
2022-12-04T18:08:17.726Z,98510.81
2022-12-04T18:11:20.777Z,98505.56
2022-12-04T18:14:22.525Z,98516.97
2022-12-04T18:17:24.140Z,98519.59
2022-12-04T18:20:28.388Z,98523.06
2022-12-04T18:23:30.330Z,98523.94
2022-12-04T18:26:33.069Z,98518.69
2022-12-04T18:29:34.746Z,98521.28
2022-12-04T18:32:36.384Z,98516.94
2022-12-04T18:35:39.889Z,98513.41
2022-12-04T18:38:41.447Z,98512.53
2022-12-04T18:41:43.192Z,98509.91
2022-12-04T18:44:45.399Z,98507.31
2022-12-04T18:47:47.157Z,98501.19
2022-12-04T18:50:53.319Z,98501.19
2022-12-04T18:53:56.191Z,98492.41
2022-12-04T18:56:57.788Z,98495.94
2022-12-04T18:59:59.640Z,98505.59
2022-12-04T19:03:04.695Z,98506.44
2022-12-04T19:06:07.796Z,98504.69
2022-12-04T19:09:10.445Z,98509.91
2022-12-04T19:12:11.944Z,98515.13
2022-12-04T19:15:13.936Z,98511.66
2022-12-04T19:18:15.552Z,98513.38
2022-12-04T19:21:18.879Z,98511.66
2022-12-04T19:24:20.437Z,98524.75
2022-12-04T19:27:22.148Z,98526.47
2022-12-04T19:30:23.624Z,98524.75
2022-12-04T19:33:25.352Z,98530.03
2022-12-04T19:36:29.283Z,98524.75
2022-12-04T19:39:30.831Z,98517.75
2022-12-04T19:42:32.373Z,98529.09
2022-12-04T19:45:34.337Z,98524.72
2022-12-04T19:48:37.912Z,98535.19
2022-12-04T19:51:43.602Z,98530.84
2022-12-04T19:54:45.467Z,98535.25
2022-12-04T19:57:47.034Z,98537.81
2022-12-04T20:00:48.888Z,98539.59
2022-12-04T20:03:50.436Z,98540.44
2022-12-04T20:06:55.388Z,98543.06
2022-12-04T20:09:57.118Z,98543.06
2022-12-04T20:12:58.782Z,98535.19
2022-12-04T20:16:01.520Z,98536.91
2022-12-04T20:19:04.746Z,98532.56
2022-12-04T20:22:07.689Z,98524.69
2022-12-04T20:25:09.318Z,98527.31
2022-12-04T20:28:14.490Z,98520.31
2022-12-04T20:31:19.250Z,98516.81
2022-12-04T20:34:23.388Z,98516.81
2022-12-04T20:37:27.160Z,98512.44
2022-12-04T20:40:28.790Z,98518.56
2022-12-04T20:43:30.274Z,98513.31
2022-12-04T20:46:32.823Z,98509.81
2022-12-04T20:49:34.685Z,98505.41
2022-12-04T20:52:40.089Z,98501.09
2022-12-04T20:55:41.584Z,98501.06
2022-12-04T20:58:43.508Z,98504.59
2022-12-04T21:01:45.469Z,98502.81
2022-12-04T21:04:47.243Z,98497.59
2022-12-04T21:07:50.270Z,98495.84
2022-12-04T21:10:56.327Z,98498.41
2022-12-04T21:14:17.510Z,98488.78
2022-12-04T21:17:19.672Z,98499.25
2022-12-04T21:20:21.226Z,98497.50
2022-12-04T21:23:24.122Z,98488.78
2022-12-04T21:26:29.208Z,98494.91
2022-12-04T21:29:30.791Z,98486.16
2022-12-04T21:32:32.314Z,98494.00
2022-12-04T21:35:33.865Z,98482.63
2022-12-04T21:38:37.550Z,98480.88
2022-12-04T21:41:57.711Z,98480.88
2022-12-04T21:45:03.394Z,98473.03
2022-12-04T21:48:06.872Z,98477.47
2022-12-04T21:51:21.282Z,98475.69
2022-12-04T21:54:31.623Z,98465.22
2022-12-04T21:57:33.327Z,98471.31
2022-12-04T22:00:34.811Z,98463.44
2022-12-04T22:03:36.375Z,98465.22
2022-12-04T22:06:41.301Z,98466.97
2022-12-04T22:09:44.492Z,98464.34
2022-12-04T22:12:50.280Z,98460.88
2022-12-04T22:15:52.590Z,98473.97
2022-12-04T22:18:54.248Z,98475.72
2022-12-04T22:21:55.769Z,98477.44
2022-12-04T22:25:01.271Z,98480.09
2022-12-04T22:28:03.482Z,98481.88
2022-12-04T22:31:06.230Z,98475.75
2022-12-04T22:34:07.820Z,98474.00
2022-12-04T22:37:09.309Z,98467.81
2022-12-04T22:40:12.961Z,98470.41
2022-12-04T22:43:14.499Z,98480.03
2022-12-04T22:46:16.642Z,98485.28
2022-12-04T22:49:19.312Z,98477.41
2022-12-04T22:52:20.955Z,98476.50
2022-12-04T22:55:23.880Z,98462.47
2022-12-04T22:58:25.424Z,98465.06
2022-12-04T23:01:27.680Z,98471.22
2022-12-04T23:04:29.543Z,98468.59
2022-12-04T23:07:31.287Z,98466.81
2022-12-04T23:10:36.013Z,98472.97
2022-12-04T23:13:37.807Z,98475.56
2022-12-04T23:16:39.674Z,98473.78
2022-12-04T23:19:41.474Z,98470.31
2022-12-04T23:22:42.908Z,98471.19
2022-12-04T23:25:45.741Z,98461.56
2022-12-04T23:28:47.575Z,98469.44
2022-12-04T23:31:49.312Z,98465.88
2022-12-04T23:34:52.915Z,98474.63
2022-12-04T23:37:54.374Z,98476.38
2022-12-04T23:41:02.264Z,98471.13
2022-12-04T23:44:04.028Z,98472.91
2022-12-04T23:47:05.733Z,98481.59
2022-12-04T23:50:07.781Z,98486.00
2022-12-04T23:53:11.387Z,98489.47
2022-12-04T23:56:15.143Z,98492.94
2022-12-04T23:59:16.652Z,98489.47
